createdAt,value
2016-07-03T00:00:26.875Z,22.45
2016-07-03T00:01:27.075Z,22.44
2016-07-03T00:02:26.882Z,22.39
2016-07-03T00:03:26.878Z,22.29
2016-07-03T00:04:26.877Z,22.26
2016-07-03T00:05:26.881Z,22.29
2016-07-03T00:06:26.883Z,22.29
2016-07-03T00:07:26.881Z,22.29
2016-07-03T00:08:26.878Z,22.24
2016-07-03T00:09:26.880Z,22.2
2016-07-03T00:10:26.931Z,22.15
2016-07-03T00:11:26.879Z,22.23
2016-07-03T00:12:26.878Z,22.18
2016-07-03T00:13:26.877Z,22.11
2016-07-03T00:14:26.879Z,22.07
2016-07-03T00:15:27.080Z,22.11
2016-07-03T00:16:26.875Z,22.12
2016-07-03T00:17:27.079Z,22.07
2016-07-03T00:18:26.880Z,22.07
2016-07-03T00:19:26.888Z,22.11
2016-07-03T00:20:26.884Z,22
2016-07-03T00:21:26.880Z,22
2016-07-03T00:22:27.071Z,22.05
2016-07-03T00:23:26.874Z,22.04
2016-07-03T00:24:26.878Z,22.02
2016-07-03T00:25:26.874Z,21.93
2016-07-03T00:26:27.066Z,22
2016-07-03T00:27:26.870Z,22.02
2016-07-03T00:28:26.868Z,21.99
2016-07-03T00:29:26.874Z,22
2016-07-03T00:30:26.878Z,22.04
2016-07-03T00:31:26.884Z,22
2016-07-03T00:32:27.082Z,21.92
2016-07-03T00:33:26.882Z,22
2016-07-03T00:34:26.878Z,21.86
2016-07-03T00:35:26.899Z,22
2016-07-03T00:36:26.879Z,22.04
2016-07-03T00:37:26.885Z,21.99
2016-07-03T00:38:26.877Z,22
2016-07-03T00:39:26.881Z,22.02
2016-07-03T00:40:26.883Z,22
2016-07-03T00:41:26.887Z,21.97
2016-07-03T00:42:26.879Z,21.97
2016-07-03T00:43:26.878Z,22
2016-07-03T00:44:26.882Z,21.97
2016-07-03T00:45:26.887Z,22.04
2016-07-03T00:46:26.883Z,21.99
2016-07-03T00:47:27.086Z,21.92
2016-07-03T00:48:26.885Z,21.9
2016-07-03T00:49:26.883Z,21.97
2016-07-03T00:50:27.080Z,21.94
2016-07-03T00:51:26.949Z,21.9
2016-07-03T00:52:26.889Z,21.96
2016-07-03T00:53:26.887Z,22
2016-07-03T00:54:26.884Z,21.94
2016-07-03T00:55:26.892Z,21.94
2016-07-03T00:56:26.883Z,21.9
2016-07-03T00:57:26.879Z,22
2016-07-03T00:58:27.289Z,22
2016-07-03T00:59:26.887Z,21.93
2016-07-03T01:00:26.883Z,21.92
2016-07-03T01:01:26.886Z,21.97
2016-07-03T01:02:27.078Z,21.94
2016-07-03T01:03:26.876Z,21.93
2016-07-03T01:04:26.889Z,21.97
2016-07-03T01:05:26.890Z,21.86
2016-07-03T01:06:26.882Z,21.85
2016-07-03T01:07:26.886Z,21.94
2016-07-03T01:08:26.885Z,21.89
2016-07-03T01:09:26.887Z,21.86
2016-07-03T01:10:26.929Z,21.89
2016-07-03T01:11:26.879Z,21.93
2016-07-03T01:12:26.865Z,21.9
2016-07-03T01:13:26.869Z,21.86
2016-07-03T01:14:26.866Z,21.9
2016-07-03T01:15:26.876Z,21.85
2016-07-03T01:16:26.870Z,21.86
2016-07-03T01:17:26.888Z,21.89
2016-07-03T01:18:26.876Z,21.86
2016-07-03T01:19:26.880Z,21.82
2016-07-03T01:20:26.885Z,21.85
2016-07-03T01:21:26.880Z,21.82
2016-07-03T01:22:26.882Z,21.78
2016-07-03T01:23:26.886Z,21.76
2016-07-03T01:24:26.877Z,21.74
2016-07-03T01:25:26.876Z,21.76
2016-07-03T01:26:26.874Z,21.73
2016-07-03T01:27:26.885Z,21.68
2016-07-03T01:28:26.877Z,21.68
2016-07-03T01:29:27.084Z,21.7
2016-07-03T01:30:26.878Z,21.7
2016-07-03T01:31:26.883Z,21.67
2016-07-03T01:32:26.874Z,21.68
2016-07-03T01:33:26.881Z,21.67
2016-07-03T01:34:26.873Z,21.66
2016-07-03T01:35:27.077Z,21.68
2016-07-03T01:36:26.877Z,21.73
2016-07-03T01:37:27.080Z,21.7
2016-07-03T01:38:26.876Z,21.71
2016-07-03T01:39:27.074Z,21.71
2016-07-03T01:40:26.882Z,21.7
2016-07-03T01:41:26.880Z,21.64
2016-07-03T01:42:26.886Z,21.71
2016-07-03T01:43:26.881Z,21.66
2016-07-03T01:44:26.877Z,21.7
2016-07-03T01:45:26.876Z,21.71
2016-07-03T01:46:26.873Z,21.64
2016-07-03T01:47:26.882Z,21.7
2016-07-03T01:48:27.076Z,21.62
2016-07-03T01:49:26.871Z,21.64
2016-07-03T01:50:26.874Z,21.7
2016-07-03T01:51:26.868Z,21.61
2016-07-03T01:52:26.873Z,21.67
2016-07-03T01:53:26.866Z,21.66
2016-07-03T01:54:26.868Z,21.61
2016-07-03T01:55:26.921Z,21.67
2016-07-03T01:56:27.073Z,21.67
2016-07-03T01:57:26.873Z,21.68
2016-07-03T01:58:26.870Z,21.61
2016-07-03T01:59:26.867Z,21.61
2016-07-03T02:00:26.875Z,21.66
2016-07-03T02:01:26.882Z,21.62
2016-07-03T02:02:26.878Z,21.66
2016-07-03T02:03:26.876Z,21.59
2016-07-03T02:04:26.874Z,21.64
2016-07-03T02:05:26.874Z,21.61
2016-07-03T02:06:26.873Z,21.61
2016-07-03T02:07:26.869Z,21.66
2016-07-03T02:08:26.873Z,21.68
2016-07-03T02:09:27.072Z,21.66
2016-07-03T02:10:26.922Z,21.61
2016-07-03T02:11:27.068Z,21.66
2016-07-03T02:12:26.873Z,21.59
2016-07-03T02:13:26.863Z,21.53
2016-07-03T02:14:26.867Z,21.59
2016-07-03T02:15:27.065Z,21.59
2016-07-03T02:16:26.873Z,21.49
2016-07-03T02:17:26.859Z,21.53
2016-07-03T02:18:26.867Z,21.56
2016-07-03T02:19:26.865Z,21.53
2016-07-03T02:20:26.860Z,21.56
2016-07-03T02:21:26.865Z,21.52
2016-07-03T02:22:26.866Z,21.52
2016-07-03T02:23:26.869Z,21.49
2016-07-03T02:24:26.869Z,21.53
2016-07-03T02:25:26.867Z,21.49
2016-07-03T02:26:26.863Z,21.49
2016-07-03T02:27:26.862Z,21.45
2016-07-03T02:28:26.857Z,21.46
2016-07-03T02:29:26.853Z,21.48
2016-07-03T02:30:26.866Z,21.46
2016-07-03T02:31:26.856Z,21.38
2016-07-03T02:32:26.860Z,21.52
2016-07-03T02:33:26.861Z,21.41
2016-07-03T02:34:26.855Z,21.4
2016-07-03T02:35:26.861Z,21.3
2016-07-03T02:36:26.852Z,21.38
2016-07-03T02:37:26.864Z,21.36
2016-07-03T02:38:26.854Z,21.37
2016-07-03T02:39:26.855Z,21.34
2016-07-03T02:40:26.854Z,21.34
2016-07-03T02:41:27.058Z,21.37
2016-07-03T02:42:26.860Z,21.28
2016-07-03T02:43:26.854Z,21.33
2016-07-03T02:44:26.862Z,21.16
2016-07-03T02:45:27.257Z,21.28
2016-07-03T02:46:26.858Z,21.23
2016-07-03T02:47:26.860Z,21.3
2016-07-03T02:48:26.861Z,21.3
2016-07-03T02:49:26.853Z,21.28
2016-07-03T02:50:26.856Z,21.3
2016-07-03T02:51:26.855Z,21.21
2016-07-03T02:52:26.853Z,21.12
2016-07-03T02:53:27.054Z,21.16
2016-07-03T02:54:26.857Z,21.13
2016-07-03T02:55:27.048Z,21.13
2016-07-03T02:56:26.853Z,21.11
2016-07-03T02:57:26.842Z,21.21
2016-07-03T02:58:26.846Z,21.18
2016-07-03T02:59:26.849Z,21.08
2016-07-03T03:00:27.140Z,21.08
2016-07-03T03:01:26.927Z,21.06
2016-07-03T03:02:27.045Z,21.03
2016-07-03T03:03:26.854Z,21.11
2016-07-03T03:04:26.844Z,21.08
2016-07-03T03:05:26.865Z,21.06
2016-07-03T03:06:26.833Z,21.06
2016-07-03T03:07:26.830Z,21.09
2016-07-03T03:08:26.846Z,21.08
2016-07-03T03:09:26.838Z,20.96
2016-07-03T03:10:26.843Z,21.06
2016-07-03T03:11:26.839Z,21.04
2016-07-03T03:12:26.842Z,21.01
2016-07-03T03:13:26.839Z,21.01
2016-07-03T03:14:26.832Z,21.06
2016-07-03T03:15:26.835Z,21.01
2016-07-03T03:16:26.833Z,20.98
2016-07-03T03:17:26.828Z,21.11
2016-07-03T03:18:26.827Z,21.04
2016-07-03T03:19:26.836Z,20.96
2016-07-03T03:20:26.834Z,21.04
2016-07-03T03:21:26.837Z,21.03
2016-07-03T03:22:26.833Z,21.04
2016-07-03T03:23:26.846Z,21.03
2016-07-03T03:24:27.036Z,20.98
2016-07-03T03:25:26.834Z,20.98
2016-07-03T03:26:26.829Z,20.94
2016-07-03T03:27:26.830Z,20.93
2016-07-03T03:28:26.835Z,20.94
2016-07-03T03:29:26.837Z,20.93
2016-07-03T03:30:26.830Z,20.96
2016-07-03T03:31:26.821Z,20.97
2016-07-03T03:32:26.831Z,21
2016-07-03T03:33:26.822Z,20.91
2016-07-03T03:34:26.832Z,20.9
2016-07-03T03:35:27.032Z,20.91
2016-07-03T03:36:26.818Z,20.88
2016-07-03T03:37:26.810Z,20.9
2016-07-03T03:38:26.819Z,20.91
2016-07-03T03:39:26.815Z,20.88
2016-07-03T03:40:26.817Z,20.9
2016-07-03T03:41:26.802Z,20.9
2016-07-03T03:42:26.810Z,20.81
2016-07-03T03:43:26.820Z,20.85
2016-07-03T03:44:26.818Z,20.75
2016-07-03T03:45:26.818Z,20.83
2016-07-03T03:46:26.819Z,20.83
2016-07-03T03:47:26.822Z,20.82
2016-07-03T03:48:26.818Z,20.76
2016-07-03T03:49:26.829Z,20.85
2016-07-03T03:50:26.809Z,20.81
2016-07-03T03:51:26.811Z,20.82
2016-07-03T03:52:27.011Z,20.78
2016-07-03T03:53:26.817Z,20.86
2016-07-03T03:54:26.812Z,20.78
2016-07-03T03:55:26.818Z,20.76
2016-07-03T03:56:26.805Z,20.79
2016-07-03T03:57:26.814Z,20.76
2016-07-03T03:58:26.808Z,20.72
2016-07-03T03:59:26.805Z,20.76
2016-07-03T04:00:26.798Z,20.72
2016-07-03T04:01:26.810Z,20.76
2016-07-03T04:02:26.800Z,20.76
2016-07-03T04:03:26.999Z,20.79
2016-07-03T04:04:26.795Z,20.71
2016-07-03T04:05:26.800Z,20.76
2016-07-03T04:06:26.799Z,20.71
2016-07-03T04:07:26.799Z,20.75
2016-07-03T04:08:26.793Z,20.74
2016-07-03T04:09:26.798Z,20.79
2016-07-03T04:10:26.847Z,20.75
2016-07-03T04:11:26.849Z,20.68
2016-07-03T04:12:26.791Z,20.67
2016-07-03T04:13:26.988Z,20.72
2016-07-03T04:14:26.803Z,20.72
2016-07-03T04:15:26.794Z,20.66
2016-07-03T04:16:26.787Z,20.67
2016-07-03T04:17:26.784Z,20.68
2016-07-03T04:18:26.789Z,20.57
2016-07-03T04:19:26.793Z,20.63
2016-07-03T04:20:26.782Z,20.57
2016-07-03T04:21:26.782Z,20.57
2016-07-03T04:22:26.786Z,20.56
2016-07-03T04:23:26.785Z,20.57
2016-07-03T04:24:26.786Z,20.51
2016-07-03T04:25:26.780Z,20.54
2016-07-03T04:26:26.978Z,20.54
2016-07-03T04:27:26.781Z,20.54
2016-07-03T04:28:26.784Z,20.54
2016-07-03T04:29:26.798Z,20.51
2016-07-03T04:30:26.779Z,20.53
2016-07-03T04:31:26.809Z,20.54
2016-07-03T04:32:26.782Z,20.56
2016-07-03T04:33:26.802Z,20.58
2016-07-03T04:34:26.782Z,20.54
2016-07-03T04:35:26.785Z,20.56
2016-07-03T04:36:26.778Z,20.46
2016-07-03T04:37:26.773Z,20.61
2016-07-03T04:38:26.777Z,20.53
2016-07-03T04:39:26.783Z,20.54
2016-07-03T04:40:26.773Z,20.54
2016-07-03T04:41:26.778Z,20.58
2016-07-03T04:42:26.776Z,20.53
2016-07-03T04:43:26.781Z,20.41
2016-07-03T04:44:26.776Z,20.49
2016-07-03T04:45:26.774Z,20.57
2016-07-03T04:46:26.967Z,20.44
2016-07-03T04:47:26.768Z,20.49
2016-07-03T04:48:26.772Z,20.44
2016-07-03T04:49:26.772Z,20.38
2016-07-03T04:50:26.770Z,20.51
2016-07-03T04:51:26.770Z,20.38
2016-07-03T04:52:26.764Z,20.41
2016-07-03T04:53:26.968Z,20.38
2016-07-03T04:54:26.967Z,20.44
2016-07-03T04:55:26.778Z,20.4
2016-07-03T04:56:26.763Z,20.48
2016-07-03T04:57:26.757Z,20.37
2016-07-03T04:58:26.961Z,20.51
2016-07-03T04:59:26.764Z,20.46
2016-07-03T05:00:26.765Z,20.38
2016-07-03T05:01:26.751Z,20.51
2016-07-03T05:02:26.754Z,20.4
2016-07-03T05:03:26.800Z,20.44
2016-07-03T05:04:26.745Z,20.4
2016-07-03T05:05:26.751Z,20.48
2016-07-03T05:06:27.038Z,20.4
2016-07-03T05:07:26.755Z,20.38
2016-07-03T05:08:26.738Z,20.42
2016-07-03T05:09:26.750Z,20.4
2016-07-03T05:10:26.788Z,20.4
2016-07-03T05:11:26.945Z,20.4
2016-07-03T05:12:26.741Z,20.4
2016-07-03T05:13:26.743Z,20.41
2016-07-03T05:14:26.735Z,20.4
2016-07-03T05:15:26.733Z,20.42
2016-07-03T05:16:26.733Z,20.38
2016-07-03T05:17:26.729Z,20.38
2016-07-03T05:18:26.735Z,20.41
2016-07-03T05:19:26.734Z,20.37
2016-07-03T05:20:26.735Z,20.38
2016-07-03T05:21:26.730Z,20.32
2016-07-03T05:22:26.730Z,20.37
2016-07-03T05:23:26.733Z,20.32
2016-07-03T05:24:26.932Z,20.34
2016-07-03T05:25:26.729Z,20.35
2016-07-03T05:26:26.726Z,20.29
2016-07-03T05:27:26.730Z,20.35
2016-07-03T05:28:26.721Z,20.37
2016-07-03T05:29:26.724Z,20.4
2016-07-03T05:30:26.727Z,20.29
2016-07-03T05:31:26.725Z,20.34
2016-07-03T05:32:26.720Z,20.35
2016-07-03T05:33:26.724Z,20.32
2016-07-03T05:34:26.723Z,20.34
2016-07-03T05:35:26.932Z,20.38
2016-07-03T05:36:26.925Z,20.34
2016-07-03T05:37:26.726Z,20.38
2016-07-03T05:38:26.718Z,20.37
2016-07-03T05:39:26.717Z,20.34
2016-07-03T05:40:26.916Z,20.35
2016-07-03T05:41:26.715Z,20.29
2016-07-03T05:42:26.913Z,20.41
2016-07-03T05:43:26.741Z,20.38
2016-07-03T05:44:26.702Z,20.35
2016-07-03T05:45:26.716Z,20.3
2016-07-03T05:46:26.709Z,20.34
2016-07-03T05:47:26.707Z,20.35
2016-07-03T05:48:26.707Z,20.38
2016-07-03T05:49:26.698Z,20.4
2016-07-03T05:50:26.705Z,20.34
2016-07-03T05:51:26.716Z,20.29
2016-07-03T05:52:26.699Z,20.41
2016-07-03T05:53:26.708Z,20.37
2016-07-03T05:54:26.706Z,20.3
2016-07-03T05:55:26.702Z,20.35
2016-07-03T05:56:26.700Z,20.35
2016-07-03T05:57:26.699Z,20.35
2016-07-03T05:58:26.702Z,20.35
2016-07-03T05:59:26.691Z,20.42
2016-07-03T06:00:26.694Z,20.4
2016-07-03T06:01:26.692Z,20.4
2016-07-03T06:02:26.706Z,20.4
2016-07-03T06:03:26.692Z,20.3
2016-07-03T06:04:26.698Z,20.41
2016-07-03T06:05:26.691Z,20.41
2016-07-03T06:06:26.692Z,20.46
2016-07-03T06:07:26.690Z,20.42
2016-07-03T06:08:26.690Z,20.44
2016-07-03T06:09:26.689Z,20.4
2016-07-03T06:10:26.741Z,20.46
2016-07-03T06:11:26.687Z,20.46
2016-07-03T06:12:26.694Z,20.4
2016-07-03T06:13:26.692Z,20.44
2016-07-03T06:14:26.887Z,20.51
2016-07-03T06:15:26.681Z,20.38
2016-07-03T06:16:26.676Z,20.41
2016-07-03T06:17:26.680Z,20.51
2016-07-03T06:18:26.675Z,20.58
2016-07-03T06:19:26.673Z,20.51
2016-07-03T06:20:26.675Z,20.48
2016-07-03T06:21:26.670Z,20.49
2016-07-03T06:22:26.881Z,20.42
2016-07-03T06:23:26.675Z,20.41
2016-07-03T06:24:26.676Z,20.58
2016-07-03T06:25:26.677Z,20.42
2016-07-03T06:26:26.728Z,20.41
2016-07-03T06:27:26.866Z,20.51
2016-07-03T06:28:26.673Z,20.51
2016-07-03T06:29:26.670Z,20.44
2016-07-03T06:30:26.667Z,20.42
2016-07-03T06:31:26.666Z,20.48
2016-07-03T06:32:26.663Z,20.54
2016-07-03T06:33:26.664Z,20.54
2016-07-03T06:34:26.668Z,20.54
2016-07-03T06:35:26.662Z,20.56
2016-07-03T06:36:26.862Z,20.6
2016-07-03T06:37:26.657Z,20.49
2016-07-03T06:38:26.662Z,20.51
2016-07-03T06:39:26.657Z,20.54
2016-07-03T06:40:26.660Z,20.61
2016-07-03T06:41:26.640Z,20.58
2016-07-03T06:42:26.648Z,20.57
2016-07-03T06:43:26.649Z,20.61
2016-07-03T06:44:26.713Z,20.57
2016-07-03T06:45:26.643Z,20.6
2016-07-03T06:46:26.648Z,20.51
2016-07-03T06:47:26.643Z,20.54
2016-07-03T06:48:26.640Z,20.56
2016-07-03T06:49:26.645Z,20.53
2016-07-03T06:50:26.628Z,20.48
2016-07-03T06:51:26.634Z,20.44
2016-07-03T06:52:26.636Z,20.44
2016-07-03T06:53:26.636Z,20.4
2016-07-03T06:54:26.631Z,20.29
2016-07-03T06:55:26.635Z,20.35
2016-07-03T06:56:26.635Z,20.41
2016-07-03T06:57:26.636Z,20.41
2016-07-03T06:58:26.636Z,20.29
2016-07-03T06:59:26.632Z,20.25
2016-07-03T07:00:26.634Z,20.3
2016-07-03T07:01:26.629Z,20.23
2016-07-03T07:02:26.623Z,20.25
2016-07-03T07:03:26.627Z,20.27
2016-07-03T07:04:26.621Z,20.16
2016-07-03T07:05:26.625Z,20.22
2016-07-03T07:06:26.626Z,20.23
2016-07-03T07:07:26.630Z,20.23
2016-07-03T07:08:26.628Z,20.25
2016-07-03T07:09:26.619Z,20.16
2016-07-03T07:10:26.668Z,20.25
2016-07-03T07:11:26.615Z,20.29
2016-07-03T07:12:26.613Z,20.2
2016-07-03T07:13:26.614Z,20.11
2016-07-03T07:14:26.614Z,20.05
2016-07-03T07:15:26.616Z,20.15
2016-07-03T07:16:26.614Z,20.11
2016-07-03T07:17:26.605Z,20.19
2016-07-03T07:18:26.609Z,20.15
2016-07-03T07:19:26.818Z,20.15
2016-07-03T07:20:26.615Z,20.08
2016-07-03T07:21:26.613Z,20.04
2016-07-03T07:22:26.816Z,20.04
2016-07-03T07:23:26.613Z,20.12
2016-07-03T07:24:26.613Z,20.16
2016-07-03T07:25:26.604Z,20.11
2016-07-03T07:26:26.817Z,20.1
2016-07-03T07:27:26.607Z,20.1
2016-07-03T07:28:26.600Z,20.1
2016-07-03T07:29:26.602Z,20.1
2016-07-03T07:30:26.630Z,20.1
2016-07-03T07:31:26.604Z,20.08
2016-07-03T07:32:26.603Z,20.08
2016-07-03T07:33:26.642Z,19.97
2016-07-03T07:34:26.607Z,20.05
2016-07-03T07:35:26.810Z,20.07
2016-07-03T07:36:26.601Z,20.08
2016-07-03T07:37:26.599Z,20.05
2016-07-03T07:38:26.599Z,19.95
2016-07-03T07:39:26.600Z,19.95
2016-07-03T07:40:26.599Z,19.93
2016-07-03T07:41:26.827Z,19.93
2016-07-03T07:42:26.797Z,19.97
2016-07-03T07:43:26.803Z,19.95
2016-07-03T07:44:26.810Z,20.12
2016-07-03T07:45:26.590Z,20.08
2016-07-03T07:46:26.803Z,20.07
2016-07-03T07:47:26.601Z,20
2016-07-03T07:48:26.597Z,20.08
2016-07-03T07:49:26.587Z,20.12
2016-07-03T07:50:26.601Z,20.15
2016-07-03T07:51:26.591Z,20.19
2016-07-03T07:52:26.596Z,20.11
2016-07-03T07:53:26.593Z,20.07
2016-07-03T07:54:26.593Z,20.07
2016-07-03T07:55:26.591Z,20.15
2016-07-03T07:56:26.588Z,20.1
2016-07-03T07:57:26.584Z,20.1
2016-07-03T07:58:26.584Z,20.12
2016-07-03T07:59:26.582Z,19.98
2016-07-03T08:00:26.784Z,20.08
2016-07-03T08:01:26.589Z,20.15
2016-07-03T08:02:26.589Z,20.15
2016-07-03T08:03:26.576Z,20.12
2016-07-03T08:04:26.583Z,20.16
2016-07-03T08:05:26.577Z,20.1
2016-07-03T08:06:26.571Z,20.11
2016-07-03T08:07:26.576Z,20.1
2016-07-03T08:08:26.585Z,20.11
2016-07-03T08:09:26.579Z,20.16
2016-07-03T08:10:26.575Z,20.1
2016-07-03T08:11:26.572Z,20.18
2016-07-03T08:12:26.568Z,20.15
2016-07-03T08:13:26.576Z,20.15
2016-07-03T08:14:26.573Z,20.08
2016-07-03T08:15:26.571Z,20.15
2016-07-03T08:16:26.576Z,20.05
2016-07-03T08:17:26.567Z,20.16
2016-07-03T08:18:26.769Z,20.1
2016-07-03T08:19:26.576Z,20.12
2016-07-03T08:20:26.574Z,20.01
2016-07-03T08:21:26.567Z,20.11
2016-07-03T08:22:26.575Z,20.07
2016-07-03T08:23:26.574Z,20.1
2016-07-03T08:24:26.569Z,20.11
2016-07-03T08:25:26.563Z,20.18
2016-07-03T08:26:26.563Z,20.2
2016-07-03T08:27:26.567Z,20.15
2016-07-03T08:28:26.569Z,20.18
2016-07-03T08:29:26.568Z,20.04
2016-07-03T08:30:26.567Z,20.11
2016-07-03T08:31:26.572Z,20.08
2016-07-03T08:32:26.569Z,20.12
2016-07-03T08:33:26.569Z,20.2
2016-07-03T08:34:26.570Z,20.23
2016-07-03T08:35:26.568Z,20.16
2016-07-03T08:36:26.565Z,20.22
2016-07-03T08:37:26.761Z,20.2
2016-07-03T08:38:26.557Z,20.25
2016-07-03T08:39:26.569Z,20.23
2016-07-03T08:40:26.567Z,20.25
2016-07-03T08:41:26.767Z,20.19
2016-07-03T08:42:26.563Z,20.25
2016-07-03T08:43:26.578Z,20.22
2016-07-03T08:44:26.757Z,20.27
2016-07-03T08:45:26.550Z,20.32
2016-07-03T08:46:26.557Z,20.3
2016-07-03T08:47:26.558Z,20.34
2016-07-03T08:48:26.552Z,20.25
2016-07-03T08:49:26.547Z,20.26
2016-07-03T08:50:26.555Z,20.22
2016-07-03T08:51:26.549Z,20.34
2016-07-03T08:52:26.554Z,20.32
2016-07-03T08:53:26.554Z,20.29
2016-07-03T08:54:26.554Z,20.2
2016-07-03T08:55:26.750Z,20.29
2016-07-03T08:56:26.550Z,20.22
2016-07-03T08:57:26.546Z,20.25
2016-07-03T08:58:26.536Z,20.18
2016-07-03T08:59:26.738Z,20.16
2016-07-03T09:00:26.535Z,20.23
2016-07-03T09:01:26.539Z,20.26
2016-07-03T09:02:26.533Z,20.2
2016-07-03T09:03:26.538Z,20.26
2016-07-03T09:04:26.542Z,20.26
2016-07-03T09:05:26.538Z,20.22
2016-07-03T09:06:26.538Z,20.23
2016-07-03T09:07:26.942Z,20.16
2016-07-03T09:08:26.551Z,20.05
2016-07-03T09:09:26.541Z,20.11
2016-07-03T09:10:26.589Z,20.01
2016-07-03T09:11:26.747Z,20.07
2016-07-03T09:12:26.541Z,20.08
2016-07-03T09:13:26.536Z,20.15
2016-07-03T09:14:26.539Z,20.12
2016-07-03T09:15:26.737Z,20.07
2016-07-03T09:16:26.732Z,20.08
2016-07-03T09:17:26.937Z,20.07
2016-07-03T09:18:26.537Z,20.04
2016-07-03T09:19:26.535Z,19.98
2016-07-03T09:20:26.535Z,20.15
2016-07-03T09:21:26.732Z,20.07
2016-07-03T09:22:26.731Z,20.07
2016-07-03T09:23:26.535Z,20.12
2016-07-03T09:24:26.528Z,20.08
2016-07-03T09:25:26.734Z,20.01
2016-07-03T09:26:26.527Z,20
2016-07-03T09:27:26.546Z,20
2016-07-03T09:28:26.519Z,20.08
2016-07-03T09:29:26.528Z,20.11
2016-07-03T09:30:26.534Z,20.16
2016-07-03T09:31:26.533Z,20.05
2016-07-03T09:32:26.535Z,20.07
2016-07-03T09:33:26.528Z,20.02
2016-07-03T09:34:26.529Z,20.01
2016-07-03T09:35:26.525Z,20.01
2016-07-03T09:36:26.523Z,19.95
2016-07-03T09:37:26.528Z,19.93
2016-07-03T09:38:26.724Z,19.93
2016-07-03T09:39:26.521Z,20
2016-07-03T09:40:26.524Z,20.05
2016-07-03T09:41:26.539Z,20
2016-07-03T09:42:26.723Z,20.1
2016-07-03T09:43:26.522Z,20.15
2016-07-03T09:44:26.527Z,20.2
2016-07-03T09:45:26.521Z,20.22
2016-07-03T09:46:26.719Z,20.29
2016-07-03T09:47:26.519Z,20.27
2016-07-03T09:48:26.514Z,20.29
2016-07-03T09:49:26.519Z,20.27
2016-07-03T09:50:26.703Z,20.35
2016-07-03T09:51:26.510Z,20.34
2016-07-03T09:52:26.698Z,20.34
2016-07-03T09:53:26.502Z,20.4
2016-07-03T09:54:26.709Z,20.35
2016-07-03T09:55:26.508Z,20.29
2016-07-03T09:56:26.503Z,20.25
2016-07-03T09:57:26.513Z,20.27
2016-07-03T09:58:26.491Z,20.22
2016-07-03T09:59:26.506Z,20.25
2016-07-03T10:00:26.508Z,20.2
2016-07-03T10:01:26.506Z,20.27
2016-07-03T10:02:26.508Z,20.26
2016-07-03T10:03:26.504Z,20.23
2016-07-03T10:04:26.701Z,20.22
2016-07-03T10:05:26.502Z,20.29
2016-07-03T10:07:21.167Z,20.26
2016-07-03T10:08:21.150Z,20.32
2016-07-03T10:09:21.161Z,20.35
2016-07-03T10:10:21.156Z,20.32
2016-07-03T10:11:21.158Z,20.25
2016-07-03T10:12:21.148Z,20.3
2016-07-03T10:13:21.149Z,20.25
2016-07-03T10:14:21.153Z,20.3
2016-07-03T10:15:21.150Z,20.27
2016-07-03T10:16:21.165Z,20.27
2016-07-03T10:17:21.156Z,20.22
2016-07-03T10:18:21.156Z,20.25
2016-07-03T10:19:21.146Z,20.23
2016-07-03T10:20:21.337Z,20.22
2016-07-03T10:21:21.138Z,20.22
2016-07-03T10:22:21.136Z,20.12
2016-07-03T10:23:21.147Z,20.11
2016-07-03T10:24:21.143Z,20.05
2016-07-03T10:25:21.140Z,20.11
2016-07-03T10:26:21.336Z,20.07
2016-07-03T10:27:21.137Z,20.11
2016-07-03T10:28:21.133Z,20.11
2016-07-03T10:29:21.127Z,20.05
2016-07-03T10:30:21.131Z,20.02
2016-07-03T10:31:21.124Z,19.9
2016-07-03T10:32:21.133Z,19.92
2016-07-03T10:33:21.130Z,19.95
2016-07-03T10:34:21.336Z,19.97
2016-07-03T10:35:21.119Z,19.97
2016-07-03T10:36:21.119Z,19.95
2016-07-03T10:37:21.118Z,19.97
2016-07-03T10:38:21.117Z,19.98
2016-07-03T10:39:21.112Z,19.93
2016-07-03T10:40:21.117Z,19.93
2016-07-03T10:41:21.106Z,19.97
2016-07-03T10:42:21.105Z,19.85
2016-07-03T10:43:21.106Z,19.85
2016-07-03T10:44:21.100Z,19.78
2016-07-03T10:45:21.095Z,19.78
2016-07-03T10:46:21.093Z,19.65
2016-07-03T10:47:21.290Z,19.71
2016-07-03T10:48:21.094Z,19.75
2016-07-03T10:49:21.096Z,19.65
2016-07-03T10:50:21.090Z,19.8
2016-07-03T10:51:21.288Z,19.82
2016-07-03T10:52:21.082Z,19.86
2016-07-03T10:53:21.085Z,19.93
2016-07-03T10:54:21.075Z,19.95
2016-07-03T10:55:21.271Z,19.97
2016-07-03T10:56:21.075Z,20.02
2016-07-03T10:57:21.070Z,20.04
2016-07-03T10:58:21.077Z,20.07
2016-07-03T10:59:21.068Z,20.05
2016-07-03T11:00:21.274Z,20.12
2016-07-03T11:01:21.263Z,20.19
2016-07-03T11:02:21.262Z,20.12
2016-07-03T11:03:21.052Z,20.18
2016-07-03T11:04:21.269Z,20.11
2016-07-03T11:05:21.268Z,20.19
2016-07-03T11:06:21.054Z,20.25
2016-07-03T11:07:21.059Z,20.3
2016-07-03T11:08:21.058Z,20.22
2016-07-03T11:09:21.062Z,20.29
2016-07-03T11:10:21.054Z,20.32
2016-07-03T11:11:21.055Z,20.34
2016-07-03T11:12:21.040Z,20.25
2016-07-03T11:13:21.056Z,20.3
2016-07-03T11:14:21.049Z,20.27
2016-07-03T11:15:21.044Z,20.23
2016-07-03T11:16:21.044Z,20.4
2016-07-03T11:17:21.047Z,20.41
2016-07-03T11:18:21.050Z,20.54
2016-07-03T11:19:21.047Z,20.57
2016-07-03T11:20:21.042Z,20.6
2016-07-03T11:21:21.039Z,20.68
2016-07-03T11:22:21.039Z,20.66
2016-07-03T11:23:21.039Z,20.71
2016-07-03T11:24:21.036Z,20.76
2016-07-03T11:25:21.034Z,20.74
2016-07-03T11:26:21.027Z,20.82
2016-07-03T11:27:21.025Z,20.79
2016-07-03T11:28:21.013Z,20.85
2016-07-03T11:29:21.235Z,20.86
2016-07-03T11:30:21.026Z,20.82
2016-07-03T11:31:21.008Z,20.88
2016-07-03T11:32:21.022Z,20.86
2016-07-03T11:33:21.038Z,20.94
2016-07-03T11:34:21.019Z,20.97
2016-07-03T11:35:21.030Z,20.93
2016-07-03T11:36:21.017Z,21.01
2016-07-03T11:37:21.022Z,21
2016-07-03T11:38:21.015Z,21.06
2016-07-03T11:39:21.019Z,21.03
2016-07-03T11:40:21.018Z,21.08
2016-07-03T11:41:21.030Z,21.11
2016-07-03T11:42:21.011Z,21.08
2016-07-03T11:43:21.217Z,21.04
2016-07-03T11:44:21.014Z,21.04
2016-07-03T11:45:21.038Z,21.08
2016-07-03T11:46:21.017Z,21.19
2016-07-03T11:47:21.018Z,21.19
2016-07-03T11:48:21.015Z,21.19
2016-07-03T11:49:21.214Z,21.16
2016-07-03T11:50:21.209Z,21.13
2016-07-03T11:51:21.006Z,21.13
2016-07-03T11:52:21.012Z,21.21
2016-07-03T11:53:21.016Z,21.31
2016-07-03T11:54:21.203Z,21.31
2016-07-03T11:55:21.003Z,21.31
2016-07-03T11:56:21.008Z,21.3
2016-07-03T11:57:21.007Z,21.23
2016-07-03T11:58:21.004Z,21.33
2016-07-03T11:59:21.001Z,21.37
2016-07-03T12:00:20.996Z,21.33
2016-07-03T12:01:20.994Z,21.34
2016-07-03T12:02:20.999Z,21.36
2016-07-03T12:03:21.000Z,21.33
2016-07-03T12:04:21.012Z,21.34
2016-07-03T12:05:20.999Z,21.38
2016-07-03T12:06:20.996Z,21.34
2016-07-03T12:07:20.999Z,21.38
2016-07-03T12:08:20.993Z,21.33
2016-07-03T12:09:20.999Z,21.36
2016-07-03T12:10:20.985Z,21.37
2016-07-03T12:11:20.985Z,21.36
2016-07-03T12:12:20.986Z,21.41
2016-07-03T12:13:20.992Z,21.43
2016-07-03T12:14:20.988Z,21.49
2016-07-03T12:15:20.993Z,21.43
2016-07-03T12:16:20.994Z,21.49
2016-07-03T12:17:21.195Z,21.48
2016-07-03T12:18:20.987Z,21.46
2016-07-03T12:19:20.983Z,21.41
2016-07-03T12:20:20.995Z,21.43
2016-07-03T12:21:20.989Z,21.49
2016-07-03T12:22:20.984Z,21.46
2016-07-03T12:23:20.983Z,21.45
2016-07-03T12:24:20.975Z,21.3
2016-07-03T12:25:20.982Z,21.25
2016-07-03T12:26:20.979Z,21.22
2016-07-03T12:27:20.984Z,21.18
2016-07-03T12:28:20.983Z,21.25
2016-07-03T12:29:20.982Z,21.13
2016-07-03T12:30:20.976Z,21.21
2016-07-03T12:31:20.981Z,21.16
2016-07-03T12:32:20.973Z,21.08
2016-07-03T12:33:21.178Z,21.01
2016-07-03T12:34:20.988Z,20.88
2016-07-03T12:35:20.978Z,20.91
2016-07-03T12:36:21.374Z,21.04
2016-07-03T12:37:20.976Z,21.01
2016-07-03T12:38:20.976Z,21
2016-07-03T12:39:20.975Z,21.01
2016-07-03T12:40:20.973Z,21.03
2016-07-03T12:41:20.968Z,21.08
2016-07-03T12:42:20.970Z,21.03
2016-07-03T12:43:20.960Z,21.06
2016-07-03T12:44:20.969Z,21.11
2016-07-03T12:45:21.176Z,21.06
2016-07-03T12:46:20.960Z,21.01
2016-07-03T12:47:20.965Z,20.91
2016-07-03T12:48:20.969Z,21.04
2016-07-03T12:49:20.967Z,21.04
2016-07-03T12:50:21.176Z,20.97
2016-07-03T12:51:20.963Z,20.93
2016-07-03T12:52:20.966Z,21.01
2016-07-03T12:53:20.965Z,21
2016-07-03T12:54:20.967Z,21.03
2016-07-03T12:55:20.956Z,21.12
2016-07-03T12:56:20.956Z,21.08
2016-07-03T12:57:20.965Z,21.06
2016-07-03T12:58:20.962Z,21.19